Time;durP1;ratioP1;P1;durP2;ratioP2;P2;SDS_P1;SDS_P2;PMS_P1;PMS_P2;Temp;Humidity;BMP_temperature;BMP_pressure;BME280_temperature;BME280_humidity;BME280_pressure;Samples;Min_cycle;Max_cycle;Signal;HPM_P1;HPM_P2
2023/08/25 00:01:58;;;;;;;12.20;4.80;;;;;;;24.04;50.44;100985.73;107407;1255;97835;-63
2023/08/25 00:04:26;;;;;;;8.50;4.30;;;;;;;23.99;50.61;100987.25;107393;1257;111503;-62
2023/08/25 00:06:54;;;;;;;19.40;4.50;;;;;;;23.94;50.92;100988.05;107400;1255;109427;-62
2023/08/25 00:09:23;;;;;;;13.50;4.50;;;;;;;23.91;51.12;100991.44;107377;1257;108725;-62
2023/08/25 00:11:52;;;;;;;11.20;4.90;;;;;;;23.91;51.00;100992.33;107382;1255;97958;-62
2023/08/25 00:14:21;;;;;;;11.90;4.40;;;;;;;23.91;51.18;100987.90;107395;1254;97845;-62
2023/08/25 00:16:49;;;;;;;12.70;4.80;;;;;;;23.90;51.39;100980.63;107420;1255;111563;-63
2023/08/25 00:19:18;;;;;;;11.20;4.60;;;;;;;23.87;51.47;100982.67;107424;1254;110055;-62
2023/08/25 00:21:46;;;;;;;13.90;4.40;;;;;;;23.84;51.61;100982.52;107374;1255;108014;-62
2023/08/25 00:24:15;;;;;;;12.60;4.40;;;;;;;23.77;51.67;100989.66;107428;1257;97708;-61
2023/08/25 00:26:43;;;;;;;8.60;4.70;;;;;;;23.63;51.90;100997.24;107385;1257;97842;-61
2023/08/25 00:29:11;;;;;;;12.70;4.30;;;;;;;23.57;52.02;101002.92;107411;1259;112210;-62
2023/08/25 00:31:40;;;;;;;10.60;5.00;;;;;;;23.55;52.11;101001.62;107283;1263;108964;-61
2023/08/25 00:34:08;;;;;;;13.90;4.50;;;;;;;23.53;52.52;100998.25;107153;1257;111233;-62
2023/08/25 00:36:36;;;;;;;7.00;4.60;;;;;;;23.49;52.34;100992.64;107394;1257;97827;-63
2023/08/25 00:39:04;;;;;;;8.70;4.70;;;;;;;23.46;52.38;100991.17;107413;1256;97860;-63
2023/08/25 00:41:33;;;;;;;14.80;5.00;;;;;;;23.45;52.25;100990.71;107334;1254;111673;-61
2023/08/25 00:44:02;;;;;;;8.10;4.10;;;;;;;23.43;52.24;100988.77;107370;1257;109235;-62
2023/08/25 00:46:31;;;;;;;11.90;5.20;;;;;;;23.42;52.11;100998.13;107446;1257;108482;-61
2023/08/25 00:49:01;;;;;;;14.10;4.70;;;;;;;23.40;52.12;100995.08;107323;1260;97885;-62
2023/08/25 00:51:30;;;;;;;12.90;5.30;;;;;;;23.38;52.32;100996.10;107445;1257;97818;-61
2023/08/25 00:53:58;;;;;;;11.90;4.70;;;;;;;23.35;52.42;100993.96;107421;1254;111487;-61
2023/08/25 00:56:26;;;;;;;8.30;4.40;;;;;;;23.32;52.28;100994.65;107265;1260;109743;-62
2023/08/25 00:58:55;;;;;;;9.80;4.30;;;;;;;23.30;52.30;100994.82;107359;1260;108506;-62
2023/08/25 01:01:23;;;;;;;9.30;4.30;;;;;;;23.29;52.64;100994.45;107382;1254;97832;-63
2023/08/25 01:03:52;;;;;;;10.70;4.50;;;;;;;23.27;52.56;100995.96;107441;1254;98364;-63
2023/08/25 01:06:20;;;;;;;7.40;4.10;;;;;;;23.25;52.58;100998.09;107383;1257;111868;-62
2023/08/25 01:08:49;;;;;;;12.90;5.30;;;;;;;23.25;52.46;100995.05;107387;1257;109925;-62
2023/08/25 01:11:31;;;;;;;9.50;4.80;;;;;;;23.25;52.48;100992.98;107320;1254;108094;-61
2023/08/25 01:14:12;;;;;;;7.70;4.70;;;;;;;23.26;52.00;100985.71;107375;1257;97838;-61
2023/08/25 01:16:53;;;;;;;11.30;4.30;;;;;;;23.26;52.05;100978.95;107395;1257;97714;-61
2023/08/25 01:19:51;;;;;;;8.10;4.00;;;;;;;23.26;52.10;100976.98;107373;1257;111487;-61
2023/08/25 01:23:06;;;;;;;12.90;4.90;;;;;;;23.24;52.24;100973.17;107381;1255;108984;-62
2023/08/25 01:25:37;;;;;;;14.80;5.30;;;;;;;23.20;52.43;100971.04;107278;1254;107733;-63
2023/08/25 01:28:06;;;;;;;10.10;4.80;;;;;;;23.17;52.63;100968.73;107429;1254;97882;-62
2023/08/25 01:30:36;;;;;;;11.70;4.50;;;;;;;23.12;52.77;100966.09;107382;1257;98393;-61
2023/08/25 01:33:05;;;;;;;11.00;4.70;;;;;;;23.05;52.69;100969.02;107417;1254;111910;-62
2023/08/25 01:35:54;;;;;;;9.70;4.50;;;;;;;22.99;52.82;100969.11;107445;1254;108990;-63
2023/08/25 01:38:52;;;;;;;11.80;4.50;;;;;;;22.92;53.13;100962.84;107408;1260;108191;-61
2023/08/25 01:41:32;;;;;;;7.70;4.30;;;;;;;22.86;53.10;100960.65;107416;1258;97848;-62
2023/08/25 01:44:03;;;;;;;15.00;4.90;;;;;;;22.81;53.23;100958.09;107402;1254;98365;-61
2023/08/25 01:46:34;;;;;;;16.90;4.70;;;;;;;22.76;53.56;100959.44;107403;1254;112145;-62
2023/08/25 01:49:04;;;;;;;16.90;5.50;;;;;;;22.71;53.71;100956.33;107413;1257;109236;-62
2023/08/25 01:51:34;;;;;;;12.10;4.50;;;;;;;22.66;53.97;100957.05;107359;1254;107945;-62
2023/08/25 01:54:03;;;;;;;11.20;4.60;;;;;;;22.60;53.96;100960.64;107387;1254;97910;-62
2023/08/25 01:56:31;;;;;;;12.00;4.50;;;;;;;22.56;54.03;100964.85;107396;1254;97895;-62
2023/08/25 01:59:00;;;;;;;9.90;4.80;;;;;;;22.53;54.17;100964.69;107363;1259;112747;-62
2023/08/25 02:01:30;;;;;;;12.40;4.70;;;;;;;22.48;54.20;100959.46;107390;1254;109400;-62
2023/08/25 02:03:59;;;;;;;9.90;5.00;;;;;;;22.41;54.40;100958.56;107390;1257;107735;-68
2023/08/25 02:06:28;;;;;;;19.10;5.40;;;;;;;22.33;54.53;100954.36;107352;1254;97850;-66
2023/08/25 02:08:57;;;;;;;13.40;5.30;;;;;;;22.26;54.69;100951.75;107305;1254;97705;-67
2023/08/25 02:11:28;;;;;;;8.10;4.90;;;;;;;22.20;54.92;100946.59;107390;1254;110394;-67
2023/08/25 02:13:56;;;;;;;17.80;5.20;;;;;;;22.15;54.83;100945.62;107378;1254;110649;-67
2023/08/25 02:16:24;;;;;;;10.00;4.90;;;;;;;22.10;54.69;100943.55;107291;1254;108389;-67
2023/08/25 02:18:53;;;;;;;12.20;5.60;;;;;;;22.05;54.63;100948.89;107341;1256;97928;-66
2023/08/25 02:21:21;;;;;;;16.90;5.10;;;;;;;21.99;54.78;100947.83;107422;1254;98339;-67
2023/08/25 02:23:49;;;;;;;15.30;5.60;;;;;;;21.90;55.02;100947.73;107438;1254;111325;-67
2023/08/25 02:26:18;;;;;;;8.90;4.90;;;;;;;21.81;55.21;100945.89;107378;1254;109219;-67
2023/08/25 02:28:46;;;;;;;13.50;5.40;;;;;;;21.74;55.17;100949.53;107222;1257;108263;-65
2023/08/25 02:31:15;;;;;;;9.00;4.70;;;;;;;21.66;55.01;100950.58;107392;1258;97858;-65
2023/08/25 02:33:43;;;;;;;16.10;5.10;;;;;;;21.58;55.20;100944.33;107392;1256;97707;-65
2023/08/25 02:36:12;;;;;;;11.70;5.60;;;;;;;21.50;55.45;100947.65;107460;1254;111237;-65
2023/08/25 02:38:40;;;;;;;15.00;5.20;;;;;;;21.43;55.59;100949.06;107447;1254;109801;-66
2023/08/25 02:41:08;;;;;;;17.00;5.70;;;;;;;21.36;55.94;100953.74;107366;1254;108362;-66
2023/08/25 02:43:37;;;;;;;17.50;5.30;;;;;;;21.29;56.02;100958.30;107371;1257;97938;-66
2023/08/25 02:46:06;;;;;;;9.50;5.30;;;;;;;21.23;56.19;100952.84;107361;1257;97741;-64
2023/08/25 02:48:35;;;;;;;10.80;5.30;;;;;;;21.18;56.36;100958.67;107406;1254;112011;-66
2023/08/25 02:51:03;;;;;;;8.00;4.40;;;;;;;21.15;56.64;100960.76;107278;1254;109671;-66
2023/08/25 02:53:32;;;;;;;10.10;4.70;;;;;;;21.09;56.94;100966.27;107353;1256;108974;-66
2023/08/25 02:56:00;;;;;;;10.30;5.30;;;;;;;21.03;57.24;100969.04;107327;1256;97842;-67
2023/08/25 02:58:29;;;;;;;16.60;5.50;;;;;;;20.96;57.25;100976.04;107420;1254;97679;-65
2023/08/25 03:00:59;;;;;;;11.30;4.80;;;;;;;20.92;57.56;100980.67;107418;1254;111881;-65
2023/08/25 03:03:28;;;;;;;8.20;4.80;;;;;;;20.88;58.10;100990.59;107404;1254;110338;-67
2023/08/25 03:05:59;;;;;;;8.90;5.40;;;;;;;20.84;58.24;100994.34;107358;1253;108470;-65
2023/08/25 03:08:27;;;;;;;11.80;5.40;;;;;;;20.80;58.26;100998.17;107411;1254;98040;-65
2023/08/25 03:10:55;;;;;;;13.80;6.10;;;;;;;20.79;58.58;101005.48;107373;1254;97847;-65
2023/08/25 03:13:23;;;;;;;14.30;5.30;;;;;;;20.77;58.69;101006.81;107284;1257;112184;-66
2023/08/25 03:15:56;;;;;;;8.80;4.90;;;;;;;20.77;58.63;101011.91;107419;1254;110937;-65
2023/08/25 03:18:25;;;;;;;14.20;6.20;;;;;;;20.77;59.10;101009.00;107398;1259;108651;-65
2023/08/25 03:20:54;;;;;;;14.20;5.20;;;;;;;20.77;59.17;101015.95;107340;1257;97780;-66
2023/08/25 03:23:23;;;;;;;21.20;4.90;;;;;;;20.78;59.34;101020.46;107397;1254;97726;-67
2023/08/25 03:25:51;;;;;;;15.50;5.90;;;;;;;20.80;59.39;101021.39;107418;1254;111027;-66
2023/08/25 03:28:19;;;;;;;11.20;5.80;;;;;;;20.81;59.53;101024.14;107259;1257;111336;-67
2023/08/25 03:30:51;;;;;;;21.30;5.80;;;;;;;20.84;59.33;101030.60;107220;1257;106743;-66
2023/08/25 03:33:21;;;;;;;8.60;5.00;;;;;;;20.87;59.30;101031.42;107397;1254;97861;-64
2023/08/25 03:35:50;;;;;;;11.30;5.20;;;;;;;20.92;59.29;101036.21;107406;1254;97832;-67
2023/08/25 03:38:19;;;;;;;11.60;5.40;;;;;;;20.98;59.31;101037.35;107427;1254;112046;-66
2023/08/25 03:40:48;;;;;;;11.20;5.40;;;;;;;21.02;59.32;101044.08;107424;1254;109323;-66
2023/08/25 03:43:17;;;;;;;11.40;4.70;;;;;;;21.06;59.34;101051.97;107305;1254;108155;-66
2023/08/25 03:45:46;;;;;;;13.40;4.70;;;;;;;21.10;59.26;101057.84;107405;1254;98001;-67
2023/08/25 03:48:15;;;;;;;10.70;5.60;;;;;;;21.11;59.32;101058.20;107295;1254;97784;-67
2023/08/25 03:50:48;;;;;;;13.20;4.90;;;;;;;21.13;59.05;101062.54;107386;1254;110856;-67
2023/08/25 03:53:16;;;;;;;11.90;5.90;;;;;;;21.19;58.57;101060.31;107402;1257;107763;-66
2023/08/25 03:55:45;;;;;;;10.30;4.80;;;;;;;21.24;58.28;101057.02;107239;1257;108127;-67
2023/08/25 03:58:13;;;;;;;15.40;5.40;;;;;;;21.32;57.85;101059.55;107396;1257;97918;-67
2023/08/25 04:00:41;;;;;;;14.20;5.00;;;;;;;21.35;57.76;101060.88;107358;1254;98731;-68
2023/08/25 04:03:09;;;;;;;13.10;5.50;;;;;;;21.37;57.59;101066.55;107456;1254;111013;-66
2023/08/25 04:05:37;;;;;;;15.90;6.60;;;;;;;21.38;57.20;101067.30;107440;1254;109978;-66
2023/08/25 04:08:06;;;;;;;20.20;5.70;;;;;;;21.38;57.07;101071.77;107419;1254;109281;-67
2023/08/25 04:10:34;;;;;;;17.20;6.50;;;;;;;21.38;56.99;101068.40;107403;1257;98470;-67
2023/08/25 04:13:03;;;;;;;21.30;6.60;;;;;;;21.41;56.83;101071.73;107236;1256;97714;-66
2023/08/25 04:15:32;;;;;;;17.60;6.00;;;;;;;21.47;56.92;101073.80;107404;1257;112275;-68
2023/08/25 04:18:01;;;;;;;16.30;5.80;;;;;;;21.55;56.94;101072.08;107473;1256;110803;-67
2023/08/25 04:20:29;;;;;;;18.20;6.60;;;;;;;21.64;57.01;101074.72;107373;1257;107179;-68
2023/08/25 04:23:01;;;;;;;21.70;6.70;;;;;;;21.69;56.74;101078.84;107448;1254;97838;-68
2023/08/25 04:25:30;;;;;;;13.50;6.00;;;;;;;21.73;56.54;101077.63;107243;1256;98334;-67
2023/08/25 04:28:01;;;;;;;12.10;5.10;;;;;;;21.79;56.50;101075.93;107469;1257;111883;-68
2023/08/25 04:30:30;;;;;;;23.00;5.60;;;;;;;21.84;56.40;101077.98;107431;1254;109264;-69
2023/08/25 04:33:02;;;;;;;17.80;5.90;;;;;;;21.88;56.58;101082.46;107280;1254;107435;-67
2023/08/25 04:35:32;;;;;;;21.40;6.70;;;;;;;21.91;56.17;101094.27;107324;1254;97829;-66
2023/08/25 04:38:01;;;;;;;13.60;5.60;;;;;;;21.88;55.21;101099.12;107420;1254;97908;-67
2023/08/25 04:40:29;;;;;;;18.30;5.90;;;;;;;21.81;54.42;101102.95;107439;1256;111366;-67
2023/08/25 04:42:57;;;;;;;23.20;6.00;;;;;;;21.81;54.62;101098.27;107289;1254;109214;-66
2023/08/25 04:45:27;;;;;;;16.20;8.20;;;;;;;21.85;54.96;101103.25;107204;1257;108637;-66
2023/08/25 04:47:56;;;;;;;21.90;6.60;;;;;;;21.91;55.53;101105.70;107389;1254;97855;-67
2023/08/25 04:50:25;;;;;;;16.40;6.60;;;;;;;21.98;55.50;101109.98;107395;1257;98369;-67
2023/08/25 04:52:53;;;;;;;29.40;6.70;;;;;;;22.04;55.58;101113.13;107323;1254;112607;-67
2023/08/25 04:55:22;;;;;;;30.50;8.20;;;;;;;22.08;55.30;101113.31;107497;1254;109320;-67
2023/08/25 04:57:50;;;;;;;25.60;6.80;;;;;;;22.11;55.26;101116.02;107443;1254;107259;-66
2023/08/25 05:00:19;;;;;;;23.40;6.20;;;;;;;22.15;54.92;101116.48;107398;1254;97832;-66
2023/08/25 05:02:49;;;;;;;26.70;6.70;;;;;;;22.17;54.89;101112.09;107416;1254;97714;-67
2023/08/25 05:05:19;;;;;;;22.10;6.20;;;;;;;22.22;54.83;101111.13;107389;1255;111316;-67
2023/08/25 05:07:48;;;;;;;16.90;7.00;;;;;;;22.27;54.67;101112.49;107468;1254;109778;-68
2023/08/25 05:10:17;;;;;;;26.90;10.50;;;;;;;22.34;54.71;101114.71;107407;1257;107813;-65
2023/08/25 05:12:46;;;;;;;24.50;7.50;;;;;;;22.39;54.48;101118.77;107427;1254;97826;-67
2023/08/25 05:15:14;;;;;;;24.30;6.60;;;;;;;22.43;54.35;101117.17;107282;1260;99509;-66
2023/08/25 05:17:43;;;;;;;24.30;7.40;;;;;;;22.47;53.94;101117.05;107248;1256;111712;-67
2023/08/25 05:20:17;;;;;;;20.10;6.80;;;;;;;22.52;53.79;101117.07;107443;1254;109961;-68
2023/08/25 05:22:45;;;;;;;15.80;6.70;;;;;;;22.60;53.61;101125.70;107308;1254;107155;-68
2023/08/25 05:25:14;;;;;;;18.90;6.90;;;;;;;22.66;53.45;101123.13;107254;1257;97981;-67
2023/08/25 05:27:44;;;;;;;28.30;8.40;;;;;;;22.78;53.35;101124.89;107429;1254;98364;-67
2023/08/25 05:30:13;;;;;;;23.70;7.20;;;;;;;22.82;52.75;101127.29;107481;1254;111839;-67
2023/08/25 05:32:45;;;;;;;23.70;6.50;;;;;;;22.87;52.53;101130.48;107423;1257;109000;-68
2023/08/25 05:35:34;;;;;;;18.90;7.50;;;;;;;22.90;52.14;101136.95;107379;1254;107608;-68
2023/08/25 05:38:03;;;;;;;28.70;7.40;;;;;;;22.94;52.25;101138.06;107320;1254;97840;-68
2023/08/25 05:40:31;;;;;;;15.50;7.20;;;;;;;22.99;51.99;101137.44;107279;1256;97946;-66
2023/08/25 05:42:59;;;;;;;24.00;7.70;;;;;;;22.98;51.89;101136.42;107232;1256;112721;-66
2023/08/25 05:45:28;;;;;;;24.60;7.60;;;;;;;23.03;51.98;101133.34;107452;1254;108298;-67
2023/08/25 05:47:56;;;;;;;22.90;7.70;;;;;;;23.09;51.69;101135.79;107299;1254;107678;-66
2023/08/25 05:50:25;;;;;;;18.90;7.90;;;;;;;23.16;51.40;101138.96;107379;1257;97781;-67
2023/08/25 05:52:54;;;;;;;22.10;8.30;;;;;;;23.19;51.08;101135.89;107378;1254;99522;-67
2023/08/25 05:55:23;;;;;;;24.60;7.20;;;;;;;23.15;50.97;101133.27;107320;1254;112271;-67
2023/08/25 05:57:51;;;;;;;32.70;7.60;;;;;;;23.20;51.21;101130.31;107435;1254;109007;-67
2023/08/25 06:00:20;;;;;;;36.40;9.30;;;;;;;23.33;51.24;101127.16;107366;1257;108463;-64
2023/08/25 06:02:48;;;;;;;18.80;7.80;;;;;;;23.44;50.88;101124.48;107362;1254;97938;-68
2023/08/25 06:05:17;;;;;;;22.40;10.10;;;;;;;23.54;50.23;101117.88;107401;1257;97828;-67
2023/08/25 06:07:45;;;;;;;26.90;7.40;;;;;;;23.60;50.26;101113.14;107380;1254;111785;-68
2023/08/25 06:10:14;;;;;;;26.30;7.70;;;;;;;23.61;49.89;101108.78;107393;1254;110036;-67
2023/08/25 06:12:42;;;;;;;25.10;7.40;;;;;;;23.64;50.01;101110.64;107355;1254;107778;-70
2023/08/25 06:15:10;;;;;;;28.10;7.20;;;;;;;23.73;49.93;101109.72;107389;1254;97836;-65
2023/08/25 06:17:38;;;;;;;48.30;22.80;;;;;;;23.84;49.81;101111.89;107384;1254;97818;-67
2023/08/25 06:20:07;;;;;;;27.00;8.50;;;;;;;23.96;49.58;101112.41;107406;1254;110819;-67
2023/08/25 06:22:35;;;;;;;19.10;7.70;;;;;;;24.02;49.20;101107.48;107394;1257;108689;-67
2023/08/25 06:25:04;;;;;;;37.80;7.50;;;;;;;24.05;49.17;101099.83;107398;1254;107092;-67
2023/08/25 06:27:32;;;;;;;26.80;7.10;;;;;;;24.10;49.14;101087.75;107411;1257;97876;-67
2023/08/25 06:30:02;;;;;;;19.30;6.70;;;;;;;24.13;48.88;101080.48;107401;1254;97739;-67
2023/08/25 06:32:31;;;;;;;23.40;9.20;;;;;;;24.14;48.92;101076.66;107374;1257;111202;-69
2023/08/25 06:35:00;;;;;;;26.60;8.50;;;;;;;24.16;48.77;101078.10;107421;1257;109634;-67
2023/08/25 06:37:28;;;;;;;21.70;6.90;;;;;;;24.15;48.70;101073.12;107401;1254;108036;-68
2023/08/25 06:39:57;;;;;;;17.70;6.20;;;;;;;24.12;48.62;101069.65;107456;1254;97841;-67
2023/08/25 06:42:25;;;;;;;29.40;6.80;;;;;;;24.05;48.25;101075.14;107407;1254;98373;-69
2023/08/25 06:44:54;;;;;;;17.60;6.20;;;;;;;24.00;48.31;101081.88;107376;1254;110897;-67
2023/08/25 06:47:22;;;;;;;27.00;7.00;;;;;;;23.98;48.19;101081.73;107383;1257;108763;-67
2023/08/25 06:49:50;;;;;;;22.90;6.50;;;;;;;23.92;48.18;101077.58;107416;1254;108271;-67
2023/08/25 06:52:19;;;;;;;28.00;7.20;;;;;;;23.89;48.29;101079.29;107368;1254;97873;-67
2023/08/25 06:54:47;;;;;;;25.60;7.80;;;;;;;23.89;48.28;101085.34;107407;1254;98985;-67
2023/08/25 06:57:15;;;;;;;27.50;8.00;;;;;;;23.88;48.28;101086.52;107402;1254;111820;-67
2023/08/25 06:59:44;;;;;;;23.90;6.90;;;;;;;23.91;48.54;101092.12;107287;1260;108920;-67
2023/08/25 07:02:13;;;;;;;24.90;7.20;;;;;;;23.94;48.28;101095.05;107417;1254;108242;-68
2023/08/25 07:04:41;;;;;;;22.60;7.00;;;;;;;23.95;47.97;101090.53;107374;1254;97879;-67
2023/08/25 07:07:10;;;;;;;28.40;6.40;;;;;;;23.94;47.61;101085.91;107414;1254;97831;-66
2023/08/25 07:09:38;;;;;;;22.50;7.30;;;;;;;23.97;47.83;101081.42;107446;1254;112220;-67
2023/08/25 07:12:10;;;;;;;27.90;8.40;;;;;;;24.03;47.85;101080.39;107391;1254;109806;-65
2023/08/25 07:14:38;;;;;;;25.20;7.50;;;;;;;24.09;47.91;101073.56;107321;1254;107942;-67
2023/08/25 07:17:06;;;;;;;22.00;7.00;;;;;;;24.16;47.86;101072.50;107378;1257;97902;-67
2023/08/25 07:19:34;;;;;;;29.20;8.00;;;;;;;24.24;47.75;101077.50;107405;1257;97818;-66
2023/08/25 07:22:03;;;;;;;27.10;7.70;;;;;;;24.32;47.66;101082.36;107418;1257;110819;-66
2023/08/25 07:24:31;;;;;;;38.10;8.00;;;;;;;24.42;47.71;101082.64;107441;1254;109058;-66
2023/08/25 07:27:00;;;;;;;22.60;6.90;;;;;;;24.52;47.76;101086.55;107362;1254;108090;-68
2023/08/25 07:29:28;;;;;;;25.40;6.30;;;;;;;24.63;47.82;101090.24;107316;1256;97929;-66
2023/08/25 07:31:56;;;;;;;22.40;6.70;;;;;;;24.74;47.50;101091.59;107190;1257;97724;-67
2023/08/25 07:34:25;;;;;;;20.80;6.50;;;;;;;24.84;47.34;101091.04;107474;1254;111989;-67
2023/08/25 07:36:53;;;;;;;26.20;6.80;;;;;;;24.94;47.60;101086.48;107505;1257;108682;-67
2023/08/25 07:39:22;;;;;;;22.20;5.90;;;;;;;25.05;47.51;101082.66;107451;1257;106659;-66
2023/08/25 07:41:51;;;;;;;29.20;7.00;;;;;;;25.16;47.13;101080.23;107392;1254;97869;-67
2023/08/25 07:44:20;;;;;;;35.10;6.50;;;;;;;25.23;46.90;101077.92;107492;1254;98381;-64
2023/08/25 07:46:48;;;;;;;19.10;6.30;;;;;;;25.29;46.09;101079.61;107488;1254;114754;-66
2023/08/25 07:49:16;;;;;;;18.30;6.30;;;;;;;25.35;45.75;101074.55;107400;1254;109582;-66
2023/08/25 07:51:45;;;;;;;21.60;6.70;;;;;;;25.41;45.27;101073.02;107419;1254;107330;-67
2023/08/25 07:54:13;;;;;;;18.60;6.10;;;;;;;25.48;45.40;101073.05;107463;1254;97841;-68
2023/08/25 07:56:41;;;;;;;14.70;5.00;;;;;;;25.54;45.00;101075.34;107425;1257;97893;-67
2023/08/25 07:59:10;;;;;;;33.00;6.10;;;;;;;25.67;45.38;101077.58;107415;1254;111751;-66
2023/08/25 08:01:38;;;;;;;17.00;6.60;;;;;;;25.81;45.52;101076.52;107442;1257;110077;-67
2023/08/25 08:04:07;;;;;;;30.10;6.80;;;;;;;25.99;45.16;101076.42;107407;1254;108773;-66
2023/08/25 08:06:36;;;;;;;21.30;7.20;;;;;;;26.16;44.80;101074.53;107434;1254;97899;-68
2023/08/25 08:09:06;;;;;;;25.90;6.70;;;;;;;26.28;44.55;101071.19;107433;1254;97837;-66
2023/08/25 08:11:35;;;;;;;26.20;7.10;;;;;;;26.42;44.81;101067.16;107459;1256;111716;-70
2023/08/25 08:14:03;;;;;;;25.00;5.60;;;;;;;26.56;44.15;101068.06;107444;1254;109804;-68
2023/08/25 08:16:32;;;;;;;17.30;6.30;;;;;;;26.68;44.35;101063.19;107358;1256;107928;-67
2023/08/25 08:19:05;;;;;;;21.10;5.40;;;;;;;26.80;43.59;101068.85;107392;1254;97829;-67
2023/08/25 08:21:34;;;;;;;16.10;4.80;;;;;;;26.90;43.49;101061.16;107441;1257;97735;-68
2023/08/25 08:24:02;;;;;;;22.80;5.60;;;;;;;27.04;43.54;101052.72;107390;1257;111767;-67
2023/08/25 08:26:31;;;;;;;33.80;6.80;;;;;;;27.16;43.10;101045.09;107419;1257;109017;-67
2023/08/25 08:28:59;;;;;;;18.80;5.50;;;;;;;27.26;42.75;101046.09;107397;1254;107010;-67
2023/08/25 08:31:27;;;;;;;12.70;5.20;;;;;;;27.41;42.55;101045.05;107404;1254;97849;-69
2023/08/25 08:33:55;;;;;;;19.30;5.80;;;;;;;27.61;42.98;101037.27;107425;1254;97959;-70
2023/08/25 08:36:24;;;;;;;25.80;5.70;;;;;;;27.85;42.81;101039.19;107410;1256;112174;-68
2023/08/25 08:38:52;;;;;;;10.20;4.90;;;;;;;28.08;42.41;101036.63;107425;1254;109199;-68
2023/08/25 08:41:21;;;;;;;13.20;4.70;;;;;;;28.31;41.42;101036.00;107403;1258;108170;-68
2023/08/25 08:43:52;;;;;;;17.60;5.30;;;;;;;28.47;41.04;101033.14;107418;1254;97736;-67
2023/08/25 08:46:22;;;;;;;16.50;5.00;;;;;;;28.66;40.23;101028.98;107454;1254;98395;-66
2023/08/25 08:48:51;;;;;;;16.40;4.60;;;;;;;28.82;40.37;101028.91;107431;1254;112146;-67
2023/08/25 08:51:22;;;;;;;14.70;5.20;;;;;;;29.00;39.74;101026.59;107459;1254;109971;-68
2023/08/25 08:53:52;;;;;;;31.00;5.20;;;;;;;29.14;39.25;101026.73;107383;1254;108131;-67
2023/08/25 08:56:22;;;;;;;18.30;4.60;;;;;;;29.31;39.28;101027.83;107452;1254;98815;-68
2023/08/25 08:58:51;;;;;;;18.30;4.70;;;;;;;29.49;38.97;101023.15;107326;1256;99572;-67
2023/08/25 09:01:20;;;;;;;14.80;5.10;;;;;;;29.72;38.60;101022.27;107391;1254;111576;-65
2023/08/25 09:03:50;;;;;;;21.00;4.40;;;;;;;29.92;38.40;101018.73;107414;1254;109677;-68
2023/08/25 09:06:19;;;;;;;12.70;4.40;;;;;;;30.13;37.84;101013.42;107404;1254;108464;-67
2023/08/25 09:08:51;;;;;;;17.60;5.30;;;;;;;30.35;37.23;101010.91;107405;1256;97844;-67
2023/08/25 09:11:19;;;;;;;21.80;4.70;;;;;;;30.55;37.13;101011.22;107413;1254;98512;-67
2023/08/25 09:13:57;;;;;;;21.90;4.50;;;;;;;30.78;37.06;101009.67;107442;1254;111391;-67
2023/08/25 09:16:25;;;;;;;14.00;3.80;;;;;;;31.04;36.25;101009.41;107363;1257;110039;-68
2023/08/25 09:18:54;;;;;;;16.10;4.70;;;;;;;31.28;36.55;101004.85;107383;1254;108742;-66
2023/08/25 09:21:23;;;;;;;10.90;5.20;;;;;;;31.58;36.08;101007.38;107431;1257;97828;-67
2023/08/25 09:24:03;;;;;;;11.00;4.10;;;;;;;31.92;35.41;101005.78;107410;1254;97926;-68
2023/08/25 09:26:38;;;;;;;14.80;5.10;;;;;;;32.24;34.76;101007.64;107441;1254;111518;-67
2023/08/25 09:29:06;;;;;;;13.20;4.40;;;;;;;32.51;33.76;101006.99;107390;1254;110995;-68
2023/08/25 09:31:34;;;;;;;13.20;4.30;;;;;;;32.75;33.55;101009.21;107339;1257;109000;-69
2023/08/25 09:34:05;;;;;;;17.00;4.40;;;;;;;33.12;33.23;101003.80;107325;1255;97901;-65
2023/08/25 09:36:48;;;;;;;8.40;3.90;;;;;;;33.76;32.63;101000.07;107401;1257;98260;-66
2023/08/25 09:39:17;;;;;;;14.10;3.40;;;;;;;34.43;30.90;100993.83;107431;1254;111385;-67
2023/08/25 09:41:46;;;;;;;16.10;4.00;;;;;;;34.90;30.22;100991.45;107468;1254;109116;-66
2023/08/25 09:44:16;;;;;;;17.80;4.40;;;;;;;35.43;30.73;100988.19;107395;1257;107709;-66
2023/08/25 09:46:45;;;;;;;13.00;4.10;;;;;;;36.06;29.81;100987.88;107411;1257;97909;-66
2023/08/25 09:49:14;;;;;;;12.50;3.70;;;;;;;36.60;28.83;100987.63;107443;1254;98385;-67
2023/08/25 09:51:47;;;;;;;16.80;4.80;;;;;;;37.19;28.49;100983.00;107398;1254;112849;-68
2023/08/25 09:54:17;;;;;;;18.50;5.00;;;;;;;37.90;28.50;100983.40;107429;1254;109668;-67
2023/08/25 09:56:47;;;;;;;9.20;5.00;;;;;;;38.59;26.82;100979.68;106438;1254;1350399;-67
2023/08/25 09:59:16;;;;;;;9.90;3.60;;;;;;;39.10;26.42;100980.17;107343;1256;97743;-67
2023/08/25 10:01:45;;;;;;;12.60;3.40;;;;;;;39.53;25.36;100978.50;107402;1257;97953;-67
2023/08/25 10:04:16;;;;;;;12.80;4.20;;;;;;;39.83;24.30;100975.92;107418;1254;110347;-67
2023/08/25 10:06:45;;;;;;;11.10;3.40;;;;;;;39.89;24.39;100977.41;107503;1254;110125;-68
2023/08/25 10:09:14;;;;;;;11.50;3.50;;;;;;;39.93;23.94;100979.27;107378;1253;107525;-67
2023/08/25 10:11:46;;;;;;;15.40;3.90;;;;;;;39.99;24.51;100983.64;107482;1256;97707;-66
2023/08/25 10:14:14;;;;;;;26.50;4.40;;;;;;;40.22;24.02;100980.27;107410;1257;97882;-67
2023/08/25 10:16:50;;;;;;;10.50;3.40;;;;;;;40.49;23.81;100975.43;107254;1256;111891;-66
2023/08/25 10:19:24;;;;;;;5.10;3.30;;;;;;;40.93;23.64;100972.79;107376;1254;109742;-67
2023/08/25 10:21:54;;;;;;;9.40;3.40;;;;;;;41.30;22.96;100966.16;107365;1256;107781;-67
2023/08/25 10:24:24;;;;;;;14.20;3.40;;;;;;;41.54;23.02;100958.60;107363;1255;97995;-66
2023/08/25 10:26:53;;;;;;;12.00;3.90;;;;;;;41.69;21.26;100954.89;107271;1256;98482;-66
2023/08/25 10:29:23;;;;;;;14.60;4.10;;;;;;;41.74;21.77;100946.45;107396;1254;111278;-67
2023/08/25 10:31:58;;;;;;;12.50;3.80;;;;;;;41.90;21.43;100940.45;107455;1254;109885;-66
2023/08/25 10:34:40;;;;;;;9.80;4.10;;;;;;;41.93;21.54;100935.80;107418;1254;107759;-68
2023/08/25 10:37:10;;;;;;;12.20;3.50;;;;;;;42.36;22.14;100930.65;107384;1257;97815;-67
2023/08/25 10:39:52;;;;;;;11.10;3.50;;;;;;;42.90;21.05;100922.14;107386;1254;97944;-65
2023/08/25 10:42:32;;;;;;;9.20;4.00;;;;;;;43.22;20.55;100921.05;107285;1254;111696;-67
2023/08/25 10:45:09;;;;;;;12.30;4.40;;;;;;;43.11;20.26;100910.35;107430;1254;108707;-66
2023/08/25 10:47:41;;;;;;;9.40;3.80;;;;;;;43.01;20.02;100906.73;107461;1254;108536;-66
2023/08/25 10:50:10;;;;;;;13.70;3.80;;;;;;;43.19;20.29;100898.15;107372;1254;97848;-67
2023/08/25 10:52:46;;;;;;;11.40;3.70;;;;;;;43.55;20.22;100898.30;107391;1257;98350;-65
2023/08/25 10:55:28;;;;;;;13.90;2.70;;;;;;;43.91;20.01;100890.20;107385;1254;111249;-67
2023/08/25 10:58:02;;;;;;;10.20;4.10;;;;;;;44.30;19.80;100894.23;107379;1256;109966;-66
2023/08/25 11:00:36;;;;;;;9.00;2.80;;;;;;;44.64;19.51;100887.27;107331;1258;107774;-66
2023/08/25 11:03:04;;;;;;;7.40;3.20;;;;;;;44.29;19.03;100884.34;107385;1254;97836;-67
2023/08/25 11:05:37;;;;;;;7.50;2.40;;;;;;;43.33;19.90;100887.04;107414;1254;98227;-67
2023/08/25 11:08:25;;;;;;;17.00;2.70;;;;;;;42.63;20.54;100885.36;107380;1256;111958;-66
2023/08/25 11:11:15;;;;;;;11.10;3.10;;;;;;;42.81;20.66;100881.17;107432;1254;109723;-69
2023/08/25 11:13:43;;;;;;;10.50;3.30;;;;;;;43.02;20.39;100878.86;107474;1257;107043;-67
2023/08/25 11:16:13;;;;;;;8.80;2.90;;;;;;;42.64;20.44;100873.44;107424;1254;97895;-67
2023/08/25 11:18:43;;;;;;;12.40;3.30;;;;;;;41.66;20.49;100872.95;107433;1256;98424;-67